createdAt,value
2018-02-25T00:00:23.157Z,98910.74
2018-02-25T00:00:54.781Z,98907.75
2018-02-25T00:01:26.406Z,98908.16
2018-02-25T00:01:58.030Z,98908.55
2018-02-25T00:02:30.681Z,98907.23
2018-02-25T00:03:02.306Z,98903.80
2018-02-25T00:03:33.939Z,98902.09
2018-02-25T00:04:05.566Z,98902.08
2018-02-25T00:04:37.194Z,98910.13
2018-02-25T00:05:08.827Z,98909.25
2018-02-25T00:05:40.454Z,98907.58
2018-02-25T00:06:12.122Z,98908.41
2018-02-25T00:06:43.746Z,98909.25
2018-02-25T00:07:15.391Z,98909.70
2018-02-25T00:07:47.014Z,98909.28
2018-02-25T00:08:18.642Z,98911.43
2018-02-25T00:08:50.270Z,98905.88
2018-02-25T00:09:21.894Z,98908.00
2018-02-25T00:09:53.571Z,98905.47
2018-02-25T00:10:25.202Z,98912.26
2018-02-25T00:10:56.830Z,98907.58
2018-02-25T00:11:28.455Z,98907.13
2018-02-25T00:12:00.081Z,98901.17
2018-02-25T00:12:31.710Z,98900.31
2018-02-25T00:13:03.343Z,98909.25
2018-02-25T00:13:34.974Z,98908.38
2018-02-25T00:14:06.642Z,98906.26
2018-02-25T00:14:38.267Z,98904.13
2018-02-25T00:15:09.898Z,98904.56
2018-02-25T00:15:41.519Z,98905.44
2018-02-25T00:16:13.154Z,98902.84
2018-02-25T00:16:44.778Z,98902.87
2018-02-25T00:17:16.407Z,98899.45
2018-02-25T00:17:48.030Z,98902.45
2018-02-25T00:18:19.658Z,98905.83
2018-02-25T00:18:51.295Z,98902.41
2018-02-25T00:19:23.689Z,98898.20
2018-02-25T00:19:55.314Z,98899.47
2018-02-25T00:20:26.943Z,98904.16
2018-02-25T00:20:58.590Z,98903.28
2018-02-25T00:21:30.230Z,98904.13
2018-02-25T00:22:01.906Z,98904.13
2018-02-25T00:22:33.529Z,98905.81
2018-02-25T00:23:05.154Z,98898.15
2018-02-25T00:23:36.782Z,98899.43
2018-02-25T00:24:08.443Z,98909.22
2018-02-25T00:24:40.071Z,98904.11
2018-02-25T00:25:11.697Z,98904.08
2018-02-25T00:25:43.318Z,98903.66
2018-02-25T00:26:14.947Z,98907.92
2018-02-25T00:26:46.586Z,98905.74
2018-02-25T00:27:18.262Z,98907.89
2018-02-25T00:27:49.886Z,98908.34
2018-02-25T00:28:21.514Z,98915.98
2018-02-25T00:28:53.142Z,98906.22
2018-02-25T00:29:24.766Z,98908.33
2018-02-25T00:29:56.390Z,98910.85
2018-02-25T00:30:28.019Z,98908.27
2018-02-25T00:30:59.654Z,98909.17
2018-02-25T00:31:31.286Z,98907.49
2018-02-25T00:32:02.915Z,98906.22
2018-02-25T00:32:34.546Z,98910.45
2018-02-25T00:33:06.175Z,98901.52
2018-02-25T00:33:37.798Z,98905.34
2018-02-25T00:34:09.482Z,98907.92
2018-02-25T00:34:41.106Z,98906.64
2018-02-25T00:35:12.730Z,98903.27
2018-02-25T00:35:44.356Z,98903.26
2018-02-25T00:36:15.983Z,98907.07
2018-02-25T00:36:47.615Z,98898.98
2018-02-25T00:37:19.246Z,98907.90
2018-02-25T00:37:50.879Z,98904.52
2018-02-25T00:38:22.506Z,98913.43
2018-02-25T00:38:54.138Z,98912.58
2018-02-25T00:39:25.807Z,98912.16
2018-02-25T00:39:57.437Z,98906.59
2018-02-25T00:40:29.062Z,98910.01
2018-02-25T00:41:00.686Z,98907.45
2018-02-25T00:41:32.431Z,98907.40
2018-02-25T00:42:04.058Z,98901.47
2018-02-25T00:42:35.686Z,98904.84
2018-02-25T00:43:07.309Z,98901.04
2018-02-25T00:43:38.939Z,98906.14
2018-02-25T00:44:10.563Z,98903.61
2018-02-25T00:44:42.194Z,98908.72
2018-02-25T00:45:13.838Z,98908.28
2018-02-25T00:45:45.477Z,98909.98
2018-02-25T00:46:17.136Z,98907.92
2018-02-25T00:46:48.762Z,98902.81
2018-02-25T00:47:20.386Z,98913.48
2018-02-25T00:47:52.014Z,98910.04
2018-02-25T00:48:23.686Z,98910.09
2018-02-25T00:48:55.315Z,98915.17
2018-02-25T00:49:26.938Z,98904.53
2018-02-25T00:49:58.563Z,98902.83
2018-02-25T00:50:30.190Z,98901.98
2018-02-25T00:51:01.818Z,98910.52
2018-02-25T00:51:33.462Z,98909.69
2018-02-25T00:52:05.103Z,98902.89
2018-02-25T00:52:36.726Z,98903.74
2018-02-25T00:53:08.349Z,98908.47
2018-02-25T00:53:39.982Z,98905.94
2018-02-25T00:54:11.631Z,98901.25
2018-02-25T00:54:43.320Z,98905.53
2018-02-25T00:55:14.955Z,98905.52
2018-02-25T00:55:46.587Z,98906.83
2018-02-25T00:56:18.290Z,98906.83
2018-02-25T00:56:49.930Z,98908.52
2018-02-25T00:57:21.569Z,98907.67
2018-02-25T00:57:53.202Z,98906.42
2018-02-25T00:58:24.826Z,98906.41
2018-02-25T00:58:56.450Z,98904.33
2018-02-25T00:59:28.079Z,98903.50
2018-02-25T00:59:59.710Z,98903.05
2018-02-25T01:00:31.338Z,98903.92
2018-02-25T01:01:02.965Z,98900.95
2018-02-25T01:01:34.650Z,98909.48
2018-02-25T01:02:06.274Z,98906.13
2018-02-25T01:02:37.897Z,98902.29
2018-02-25T01:03:09.522Z,98903.56
2018-02-25T01:03:41.142Z,98901.45
2018-02-25T01:04:12.769Z,98906.15
2018-02-25T01:04:44.394Z,98901.49
2018-02-25T01:05:16.023Z,98893.83
2018-02-25T01:05:47.654Z,98901.05
2018-02-25T01:06:19.297Z,98903.19
2018-02-25T01:06:50.922Z,98904.48
2018-02-25T01:07:22.551Z,98901.05
2018-02-25T01:07:54.178Z,98904.06
2018-02-25T01:08:25.807Z,98900.25
2018-02-25T01:08:57.431Z,98902.34
2018-02-25T01:09:29.058Z,98899.39
2018-02-25T01:10:00.681Z,98899.83
2018-02-25T01:10:32.306Z,98906.21
2018-02-25T01:11:03.930Z,98904.08
2018-02-25T01:11:35.603Z,98900.68
2018-02-25T01:12:07.226Z,98905.77
2018-02-25T01:12:38.850Z,98903.67
2018-02-25T01:13:10.475Z,98904.08
2018-02-25T01:13:42.106Z,98901.95
2018-02-25T01:14:13.735Z,98898.15
2018-02-25T01:14:45.402Z,98901.52
2018-02-25T01:15:17.025Z,98905.34
2018-02-25T01:15:48.650Z,98898.97
2018-02-25T01:16:20.278Z,98901.12
2018-02-25T01:16:51.917Z,98897.73
2018-02-25T01:17:23.550Z,98896.45
2018-02-25T01:17:55.174Z,98897.73
2018-02-25T01:18:26.805Z,98892.20
2018-02-25T01:18:58.435Z,98900.29
2018-02-25T01:19:30.098Z,98896.45
2018-02-25T01:20:01.722Z,98897.31
2018-02-25T01:20:33.350Z,98892.20
2018-02-25T01:21:05.026Z,98890.09
2018-02-25T01:21:36.649Z,98892.64
2018-02-25T01:22:08.275Z,98891.80
2018-02-25T01:22:39.898Z,98899.05
2018-02-25T01:23:11.522Z,98890.96
2018-02-25T01:23:43.146Z,98891.80
2018-02-25T01:24:14.769Z,98893.08
2018-02-25T01:24:46.393Z,98895.64
2018-02-25T01:25:18.020Z,98887.54
2018-02-25T01:25:49.647Z,98888.39
2018-02-25T01:26:21.321Z,98891.80
2018-02-25T01:26:52.951Z,98888.40
2018-02-25T01:27:24.577Z,98895.60
2018-02-25T01:27:56.204Z,98891.33
2018-02-25T01:28:27.839Z,98892.18
2018-02-25T01:28:59.470Z,98886.69
2018-02-25T01:29:31.094Z,98892.64
2018-02-25T01:30:02.726Z,98896.89
2018-02-25T01:30:34.354Z,98888.77
2018-02-25T01:31:05.986Z,98896.00
2018-02-25T01:31:37.619Z,98897.28
2018-02-25T01:32:09.299Z,98895.56
2018-02-25T01:32:40.922Z,98896.82
2018-02-25T01:33:12.546Z,98892.56
2018-02-25T01:33:44.173Z,98899.77
2018-02-25T01:34:15.799Z,98891.22
2018-02-25T01:34:47.421Z,98893.80
2018-02-25T01:35:19.054Z,98885.27
2018-02-25T01:35:50.681Z,98886.52
2018-02-25T01:36:22.339Z,98883.98
2018-02-25T01:36:53.962Z,98884.39
2018-02-25T01:37:25.631Z,98884.77
2018-02-25T01:37:57.262Z,98887.33
2018-02-25T01:38:28.934Z,98880.47
2018-02-25T01:39:00.568Z,98891.09
2018-02-25T01:39:32.206Z,98888.55
2018-02-25T01:40:03.830Z,98894.05
2018-02-25T01:40:35.454Z,98892.38
2018-02-25T01:41:07.130Z,98889.41
2018-02-25T01:41:38.753Z,98888.95
2018-02-25T01:42:10.379Z,98889.34
2018-02-25T01:42:42.054Z,98883.81
2018-02-25T01:43:13.682Z,98889.30
2018-02-25T01:43:45.306Z,98885.03
2018-02-25T01:44:16.933Z,98888.45
2018-02-25T01:44:48.559Z,98889.28
2018-02-25T01:45:20.186Z,98886.72
2018-02-25T01:45:51.810Z,98885.83
2018-02-25T01:46:23.435Z,98890.06
2018-02-25T01:46:55.057Z,98888.34
2018-02-25T01:47:26.687Z,98889.59
2018-02-25T01:47:58.546Z,98888.73
2018-02-25T01:48:30.174Z,98888.74
2018-02-25T01:49:01.798Z,98888.29
2018-02-25T01:49:33.431Z,98889.59
2018-02-25T01:50:05.059Z,98880.68
2018-02-25T01:50:36.690Z,98882.36
2018-02-25T01:51:08.314Z,98878.90
2018-02-25T01:51:39.941Z,98881.91
2018-02-25T01:52:11.567Z,98883.56
2018-02-25T01:52:43.195Z,98882.76
2018-02-25T01:53:14.867Z,98881.91
2018-02-25T01:53:46.498Z,98884.46
2018-02-25T01:54:18.122Z,98885.75
2018-02-25T01:54:49.794Z,98884.48
2018-02-25T01:55:21.423Z,98877.23
2018-02-25T01:55:53.047Z,98883.63
2018-02-25T01:56:24.677Z,98885.38
2018-02-25T01:56:56.298Z,98884.11
2018-02-25T01:57:27.921Z,98880.70
2018-02-25T01:57:59.550Z,98888.78
2018-02-25T01:58:31.230Z,98882.00
2018-02-25T01:59:02.865Z,98883.67
2018-02-25T01:59:34.493Z,98882.82
2018-02-25T02:00:06.118Z,98885.78
2018-02-25T02:00:37.746Z,98878.97
2018-02-25T02:01:09.379Z,98873.03
2018-02-25T02:01:41.006Z,98882.77
2018-02-25T02:02:12.634Z,98884.50
2018-02-25T02:02:44.258Z,98882.80
2018-02-25T02:03:15.881Z,98878.52
2018-02-25T02:03:47.550Z,98879.45
2018-02-25T02:04:19.169Z,98877.34
2018-02-25T02:04:50.793Z,98878.19
2018-02-25T02:05:22.416Z,98878.61
2018-02-25T02:05:54.042Z,98881.61
2018-02-25T02:06:25.715Z,98879.08
2018-02-25T02:06:57.367Z,98882.08
2018-02-25T02:07:28.989Z,98876.58
2018-02-25T02:08:00.618Z,98882.95
2018-02-25T02:08:32.246Z,98885.48
2018-02-25T02:09:03.883Z,98882.53
2018-02-25T02:09:35.525Z,98879.55
2018-02-25T02:10:07.207Z,98879.58
2018-02-25T02:10:38.829Z,98881.70
2018-02-25T02:11:10.459Z,98886.80
2018-02-25T02:11:42.082Z,98881.74
2018-02-25T02:12:13.718Z,98881.76
2018-02-25T02:12:45.358Z,98887.27
2018-02-25T02:13:16.987Z,98881.36
2018-02-25T02:13:48.611Z,98883.92
2018-02-25T02:14:20.242Z,98877.58
2018-02-25T02:14:52.317Z,98879.28
2018-02-25T02:15:23.982Z,98883.55
2018-02-25T02:15:55.607Z,98876.33
2018-02-25T02:16:27.265Z,98882.70
2018-02-25T02:16:58.896Z,98876.75
2018-02-25T02:17:30.528Z,98882.30
2018-02-25T02:18:02.158Z,98880.61
2018-02-25T02:18:33.786Z,98882.75
2018-02-25T02:19:05.415Z,98882.75
2018-02-25T02:19:37.037Z,98878.49
2018-02-25T02:20:08.711Z,98883.61
2018-02-25T02:20:40.384Z,98882.81
2018-02-25T02:21:12.014Z,98880.28
2018-02-25T02:21:43.647Z,98876.48
2018-02-25T02:22:15.270Z,98881.55
2018-02-25T02:22:46.894Z,98875.61
2018-02-25T02:23:18.527Z,98881.98
2018-02-25T02:23:50.154Z,98874.76
2018-02-25T02:24:21.777Z,98867.55
2018-02-25T02:24:53.400Z,98873.90
2018-02-25T02:25:25.079Z,98872.20
2018-02-25T02:25:56.702Z,98875.17
2018-02-25T02:26:28.329Z,98876.02
2018-02-25T02:26:59.953Z,98876.05
2018-02-25T02:27:31.634Z,98877.36
2018-02-25T02:28:03.258Z,98876.07
2018-02-25T02:28:34.890Z,98878.63
2018-02-25T02:29:06.517Z,98878.20
2018-02-25T02:29:38.146Z,98878.19
2018-02-25T02:30:09.776Z,98878.58
2018-02-25T02:30:41.406Z,98876.45
2018-02-25T02:31:13.030Z,98881.16
2018-02-25T02:31:44.671Z,98878.22
2018-02-25T02:32:16.316Z,98871.01
2018-02-25T02:32:47.986Z,98881.63
2018-02-25T02:33:19.613Z,98878.66
2018-02-25T02:33:51.245Z,98882.07
2018-02-25T02:34:22.876Z,98880.35
2018-02-25T02:34:54.498Z,98886.31
2018-02-25T02:35:26.118Z,98877.38
2018-02-25T02:35:57.747Z,98878.67
2018-02-25T02:36:29.418Z,98875.27
2018-02-25T02:37:01.051Z,98873.15
2018-02-25T02:37:32.673Z,98869.78
2018-02-25T02:38:04.306Z,98878.72
2018-02-25T02:38:35.986Z,98875.31
2018-02-25T02:39:07.615Z,98873.20
2018-02-25T02:39:39.238Z,98884.70
2018-02-25T02:40:10.863Z,98878.32
2018-02-25T02:40:42.490Z,98877.05
2018-02-25T02:41:14.120Z,98880.87
2018-02-25T02:41:45.753Z,98885.12
2018-02-25T02:42:17.384Z,98889.34
2018-02-25T02:42:49.009Z,98889.36
2018-02-25T02:43:20.630Z,98888.93
2018-02-25T02:43:52.318Z,98884.28
2018-02-25T02:44:23.971Z,98888.93
2018-02-25T02:44:55.598Z,98887.67
2018-02-25T02:45:27.230Z,98891.05
2018-02-25T02:45:58.862Z,98887.67
2018-02-25T02:46:30.485Z,98880.44
2018-02-25T02:47:02.114Z,98886.77
2018-02-25T02:47:33.918Z,98883.81
2018-02-25T02:48:05.547Z,98880.84
2018-02-25T02:48:37.187Z,98888.02
2018-02-25T02:49:08.822Z,98880.80
2018-02-25T02:49:40.451Z,98886.28
2018-02-25T02:50:12.083Z,98881.61
2018-02-25T02:50:43.768Z,98887.54
2018-02-25T02:51:15.418Z,98882.44
2018-02-25T02:51:47.060Z,98888.36
2018-02-25T02:52:18.686Z,98884.11
2018-02-25T02:52:50.320Z,98890.48
2018-02-25T02:53:21.955Z,98887.08
2018-02-25T02:53:53.578Z,98885.39
2018-02-25T02:54:25.202Z,98887.92
2018-02-25T02:54:56.830Z,98882.84
2018-02-25T02:55:28.455Z,98884.12
2018-02-25T02:56:00.202Z,98878.59
2018-02-25T02:56:31.830Z,98878.19
2018-02-25T02:57:03.465Z,98885.38
2018-02-25T02:57:35.094Z,98887.53
2018-02-25T02:58:06.718Z,98874.75
2018-02-25T02:58:38.345Z,98881.11
2018-02-25T02:59:09.975Z,98882.39
2018-02-25T02:59:41.607Z,98881.97
2018-02-25T03:00:13.230Z,98876.88
2018-02-25T03:00:44.858Z,98886.63
2018-02-25T03:01:16.515Z,98883.21
2018-02-25T03:01:48.144Z,98882.37
2018-02-25T03:02:19.774Z,98882.75
2018-02-25T03:02:51.402Z,98884.03
2018-02-25T03:03:23.026Z,98886.15
2018-02-25T03:03:54.666Z,98885.30
2018-02-25T03:04:26.290Z,98888.29
2018-02-25T03:04:57.971Z,98882.72
2018-02-25T03:05:29.602Z,98881.00
2018-02-25T03:06:01.227Z,98888.64
2018-02-25T03:06:32.883Z,98882.64
2018-02-25T03:07:04.506Z,98881.35
2018-02-25T03:07:36.137Z,98884.31
2018-02-25T03:08:07.765Z,98881.31
2018-02-25T03:08:39.398Z,98880.44
2018-02-25T03:09:11.023Z,98879.99
2018-02-25T03:09:42.656Z,98874.47
2018-02-25T03:10:14.333Z,98884.62
2018-02-25T03:10:45.962Z,98875.27
2018-02-25T03:11:17.591Z,98881.20
2018-02-25T03:11:49.214Z,98882.06
2018-02-25T03:12:20.845Z,98880.33
2018-02-25T03:12:52.466Z,98886.32
2018-02-25T03:13:24.094Z,98879.05
2018-02-25T03:13:55.722Z,98878.20
2018-02-25T03:14:27.345Z,98875.22
2018-02-25T03:14:58.970Z,98873.55
2018-02-25T03:15:30.650Z,98870.95
2018-02-25T03:16:02.282Z,98877.36
2018-02-25T03:16:33.902Z,98876.95
2018-02-25T03:17:05.526Z,98880.78
2018-02-25T03:17:37.173Z,98882.05
2018-02-25T03:18:08.801Z,98885.46
2018-02-25T03:18:40.429Z,98879.93
2018-02-25T03:19:12.057Z,98880.34
2018-02-25T03:19:43.686Z,98881.14
2018-02-25T03:20:15.317Z,98875.66
2018-02-25T03:20:46.982Z,98878.19
2018-02-25T03:21:18.610Z,98879.47
2018-02-25T03:21:50.234Z,98883.31
2018-02-25T03:22:21.862Z,98879.89
2018-02-25T03:22:53.497Z,98878.19
2018-02-25T03:23:25.122Z,98875.23
2018-02-25T03:23:56.745Z,98876.93
2018-02-25T03:24:28.370Z,98877.36
2018-02-25T03:25:00.002Z,98873.98
2018-02-25T03:25:31.629Z,98873.55
2018-02-25T03:26:03.294Z,98873.98
2018-02-25T03:26:34.925Z,98875.67
2018-02-25T03:27:06.559Z,98871.88
2018-02-25T03:27:38.189Z,98871.42
2018-02-25T03:28:09.814Z,98870.55
2018-02-25T03:28:41.442Z,98871.40
2018-02-25T03:29:13.093Z,98876.52
2018-02-25T03:29:44.817Z,98876.09
2018-02-25T03:30:16.447Z,98876.98
2018-02-25T03:30:48.116Z,98873.97
2018-02-25T03:31:19.743Z,98874.84
2018-02-25T03:31:51.370Z,98877.83
2018-02-25T03:32:22.994Z,98871.89
2018-02-25T03:32:54.627Z,98874.47
2018-02-25T03:33:26.263Z,98873.16
2018-02-25T03:33:57.913Z,98871.91
2018-02-25T03:34:29.560Z,98867.67
2018-02-25T03:35:01.182Z,98867.72
2018-02-25T03:35:32.851Z,98873.66
2018-02-25T03:36:04.479Z,98877.05
2018-02-25T03:36:36.102Z,98872.81
2018-02-25T03:37:07.727Z,98871.58
2018-02-25T03:37:39.351Z,98871.63
2018-02-25T03:38:10.974Z,98869.95
2018-02-25T03:38:42.597Z,98869.94
2018-02-25T03:39:14.226Z,98869.95
2018-02-25T03:39:45.909Z,98866.58
2018-02-25T03:40:17.539Z,98866.17
2018-02-25T03:40:49.170Z,98867.45
2018-02-25T03:41:20.802Z,98865.76
2018-02-25T03:41:52.425Z,98873.43
2018-02-25T03:42:24.050Z,98871.31
2018-02-25T03:42:55.678Z,98867.95
2018-02-25T03:43:27.306Z,98869.23
2018-02-25T03:43:58.936Z,98868.36
2018-02-25T03:44:30.558Z,98869.23
2018-02-25T03:45:02.225Z,98865.86
2018-02-25T03:45:33.890Z,98869.25
2018-02-25T03:46:05.518Z,98870.53
2018-02-25T03:46:37.157Z,98855.31
2018-02-25T03:47:08.826Z,98872.27
2018-02-25T03:47:40.449Z,98873.13
2018-02-25T03:48:12.117Z,98869.73
2018-02-25T03:48:43.742Z,98868.88
2018-02-25T03:49:15.366Z,98867.20
2018-02-25T03:49:46.993Z,98870.17
2018-02-25T03:50:18.618Z,98863.80
2018-02-25T03:50:50.246Z,98865.50
2018-02-25T03:51:21.874Z,98864.65
2018-02-25T03:51:53.499Z,98859.98
2018-02-25T03:52:25.170Z,98868.05
2018-02-25T03:52:56.794Z,98863.83
2018-02-25T03:53:28.419Z,98860.88
2018-02-25T03:54:00.048Z,98864.69
2018-02-25T03:54:31.678Z,98861.30
2018-02-25T03:55:03.310Z,98860.86
2018-02-25T03:55:34.938Z,98860.01
2018-02-25T03:56:06.566Z,98865.11
2018-02-25T03:56:38.190Z,98866.83
2018-02-25T03:57:09.820Z,98866.83
2018-02-25T03:57:41.490Z,98866.84
2018-02-25T03:58:13.131Z,98870.66
2018-02-25T03:58:44.759Z,98860.05
2018-02-25T03:59:16.382Z,98872.40
2018-02-25T03:59:48.029Z,98863.89
2018-02-25T04:00:19.697Z,98863.47
2018-02-25T04:00:51.323Z,98863.44
2018-02-25T04:01:22.951Z,98866.01
2018-02-25T04:01:54.573Z,98860.91
2018-02-25T04:02:26.206Z,98865.55
2018-02-25T04:02:57.894Z,98864.73
2018-02-25T04:03:29.527Z,98867.70
2018-02-25T04:04:01.155Z,98866.02
2018-02-25T04:04:32.778Z,98861.77
2018-02-25T04:05:04.405Z,98863.46
2018-02-25T04:05:36.029Z,98865.59
2018-02-25T04:06:07.659Z,98870.70
2018-02-25T04:06:39.290Z,98862.63
2018-02-25T04:07:10.919Z,98869.42
2018-02-25T04:07:42.549Z,98866.47
2018-02-25T04:08:14.226Z,98867.30
2018-02-25T04:08:45.850Z,98863.05
2018-02-25T04:09:17.474Z,98862.20
2018-02-25T04:09:49.102Z,98865.16
2018-02-25T04:10:20.725Z,98864.73
2018-02-25T04:10:52.358Z,98862.59
2018-02-25T04:11:23.986Z,98873.20
2018-02-25T04:11:55.614Z,98863.02
2018-02-25T04:12:27.246Z,98870.66
2018-02-25T04:12:58.874Z,98865.55
2018-02-25T04:13:30.543Z,98865.13
2018-02-25T04:14:02.174Z,98870.19
2018-02-25T04:14:33.849Z,98865.11
2018-02-25T04:15:06.477Z,98870.16
2018-02-25T04:15:38.102Z,98871.88
2018-02-25T04:16:09.730Z,98874.40
2018-02-25T04:16:41.362Z,98873.13
2018-02-25T04:17:12.999Z,98872.24
2018-02-25T04:17:44.635Z,98871.80
2018-02-25T04:18:16.267Z,98873.08
2018-02-25T04:18:47.897Z,98866.72
2018-02-25T04:19:19.522Z,98869.67
2018-02-25T04:19:51.202Z,98867.16
2018-02-25T04:20:22.822Z,98872.22
2018-02-25T04:20:54.446Z,98869.66
2018-02-25T04:21:26.079Z,98871.33
2018-02-25T04:21:57.710Z,98868.40
2018-02-25T04:22:29.338Z,98875.17
2018-02-25T04:23:00.966Z,98866.23
2018-02-25T04:23:32.590Z,98877.28
2018-02-25T04:24:04.218Z,98870.92
2018-02-25T04:24:35.852Z,98867.95
2018-02-25T04:25:07.521Z,98874.73
2018-02-25T04:25:39.146Z,98874.30
2018-02-25T04:26:10.770Z,98870.91
2018-02-25T04:26:42.398Z,98874.69
2018-02-25T04:27:14.053Z,98868.73
2018-02-25T04:27:45.689Z,98865.31
2018-02-25T04:28:17.309Z,98870.84
2018-02-25T04:28:48.942Z,98869.55
2018-02-25T04:29:20.570Z,98865.70
2018-02-25T04:29:52.242Z,98866.11
2018-02-25T04:30:23.870Z,98863.94
2018-02-25T04:30:55.493Z,98870.30
2018-02-25T04:31:27.118Z,98863.06
2018-02-25T04:31:58.738Z,98873.25
2018-02-25T04:32:30.363Z,98867.67
2018-02-25T04:33:01.986Z,98864.67
2018-02-25T04:33:33.611Z,98870.63
2018-02-25T04:34:05.239Z,98874.44
2018-02-25T04:34:36.914Z,98871.05
2018-02-25T04:35:08.541Z,98868.08
2018-02-25T04:35:40.166Z,98866.78
2018-02-25T04:36:11.794Z,98868.48
2018-02-25T04:36:43.426Z,98870.21
2018-02-25T04:37:15.098Z,98868.91
2018-02-25T04:37:46.722Z,98868.46
2018-02-25T04:38:18.346Z,98868.89
2018-02-25T04:38:49.974Z,98869.31
2018-02-25T04:39:21.598Z,98865.91
2018-02-25T04:39:53.221Z,98870.17
2018-02-25T04:40:24.846Z,98865.02
2018-02-25T04:40:56.478Z,98867.55
2018-02-25T04:41:28.109Z,98869.67
2018-02-25T04:41:59.735Z,98863.31
2018-02-25T04:42:31.367Z,98865.84
2018-02-25T04:43:02.993Z,98867.95
2018-02-25T04:43:34.621Z,98864.97
2018-02-25T04:44:06.278Z,98864.55
2018-02-25T04:44:37.907Z,98862.89
2018-02-25T04:45:09.536Z,98859.08
2018-02-25T04:45:41.158Z,98863.33
2018-02-25T04:46:12.830Z,98864.19
2018-02-25T04:46:44.454Z,98865.06
2018-02-25T04:47:16.077Z,98859.95
2018-02-25T04:47:47.701Z,98866.36
2018-02-25T04:48:19.321Z,98859.55
2018-02-25T04:48:50.946Z,98863.83
2018-02-25T04:49:22.575Z,98862.12
2018-02-25T04:49:54.206Z,98864.68
2018-02-25T04:50:25.834Z,98865.55
2018-02-25T04:50:57.473Z,98866.42
2018-02-25T04:51:29.163Z,98864.69
2018-02-25T04:52:00.791Z,98865.16
2018-02-25T04:52:32.418Z,98863.86
2018-02-25T04:53:04.046Z,98862.19
2018-02-25T04:53:35.738Z,98858.34
2018-02-25T04:54:07.366Z,98859.19
2018-02-25T04:54:38.994Z,98862.17
2018-02-25T04:55:10.620Z,98868.13
2018-02-25T04:55:42.262Z,98865.16
2018-02-25T04:56:13.914Z,98859.63
2018-02-25T04:56:45.550Z,98860.05
2018-02-25T04:57:17.174Z,98863.91
2018-02-25T04:57:48.802Z,98867.34
2018-02-25T04:58:20.444Z,98862.23
2018-02-25T04:58:52.110Z,98865.66
2018-02-25T04:59:23.733Z,98865.68
2018-02-25T04:59:55.358Z,98868.27
2018-02-25T05:00:26.982Z,98863.61
2018-02-25T05:00:58.610Z,98863.20
2018-02-25T05:01:30.238Z,98863.65
2018-02-25T05:02:01.862Z,98859.84
2018-02-25T05:02:33.526Z,98864.09
2018-02-25T05:03:05.150Z,98864.53
2018-02-25T05:03:36.786Z,98865.81
2018-02-25T05:04:08.414Z,98862.42
2018-02-25T05:04:40.037Z,98860.74
2018-02-25T05:05:11.658Z,98865.80
2018-02-25T05:05:43.286Z,98860.73
2018-02-25T05:06:14.910Z,98858.61
2018-02-25T05:06:46.586Z,98862.01
2018-02-25T05:07:18.210Z,98866.72
2018-02-25T05:07:49.834Z,98861.61
2018-02-25T05:08:21.466Z,98864.59
2018-02-25T05:08:53.102Z,98867.59
2018-02-25T05:09:24.734Z,98862.92
2018-02-25T05:09:56.366Z,98859.98
2018-02-25T05:10:27.990Z,98858.70
2018-02-25T05:10:59.622Z,98864.23
2018-02-25T05:11:31.298Z,98857.86
2018-02-25T05:12:02.931Z,98860.00
2018-02-25T05:12:34.555Z,98862.12
2018-02-25T05:13:06.182Z,98858.74
2018-02-25T05:13:37.808Z,98858.74
2018-02-25T05:14:09.443Z,98857.47
2018-02-25T05:14:41.066Z,98861.75
2018-02-25T05:15:12.734Z,98855.78
2018-02-25T05:15:44.361Z,98862.61
2018-02-25T05:16:15.986Z,98863.02
2018-02-25T05:16:47.638Z,98862.20
2018-02-25T05:17:19.262Z,98858.34
2018-02-25T05:17:50.918Z,98863.91
2018-02-25T05:18:22.542Z,98859.64
2018-02-25T05:18:54.174Z,98856.27
2018-02-25T05:19:25.800Z,98863.50
2018-02-25T05:19:57.434Z,98865.62
2018-02-25T05:20:29.087Z,98864.36
2018-02-25T05:21:00.714Z,98867.33
2018-02-25T05:21:32.342Z,98869.03
2018-02-25T05:22:03.969Z,98864.36
2018-02-25T05:22:35.598Z,98868.20
2018-02-25T05:23:07.218Z,98870.74
2018-02-25T05:23:38.846Z,98874.54
2018-02-25T05:24:10.515Z,98874.54
2018-02-25T05:24:42.159Z,98875.84
2018-02-25T05:25:13.803Z,98874.98
2018-02-25T05:25:45.473Z,98872.02
2018-02-25T05:26:17.102Z,98873.70
2018-02-25T05:26:48.730Z,98872.44
2018-02-25T05:27:20.353Z,98875.00
2018-02-25T05:27:51.982Z,98878.83
2018-02-25T05:28:23.610Z,98874.14
2018-02-25T05:28:55.250Z,98872.45
2018-02-25T05:29:26.874Z,98875.84
2018-02-25T05:29:58.502Z,98872.46
2018-02-25T05:30:30.186Z,98872.03
2018-02-25T05:31:01.811Z,98872.48
2018-02-25T05:31:33.450Z,98871.19
2018-02-25T05:32:05.081Z,98872.05
2018-02-25T05:32:36.739Z,98876.31
2018-02-25T05:33:08.371Z,98868.66
2018-02-25T05:33:40.003Z,98872.48
2018-02-25T05:34:11.630Z,98873.73
2018-02-25T05:34:43.254Z,98871.22
2018-02-25T05:35:14.877Z,98865.23
2018-02-25T05:35:46.557Z,98874.14
2018-02-25T05:36:18.182Z,98876.67
2018-02-25T05:36:49.805Z,98872.02
2018-02-25T05:37:21.429Z,98872.02
2018-02-25T05:37:53.054Z,98872.86
2018-02-25T05:38:24.684Z,98869.02
2018-02-25T05:38:56.319Z,98871.56
2018-02-25T05:39:27.951Z,98868.56
2018-02-25T05:39:59.578Z,98872.41
2018-02-25T05:40:31.202Z,98871.52
2018-02-25T05:41:02.869Z,98871.93
2018-02-25T05:41:34.501Z,98875.30
2018-02-25T05:42:06.130Z,98874.03
2018-02-25T05:42:37.753Z,98874.46
2018-02-25T05:43:09.373Z,98876.56
2018-02-25T05:43:41.003Z,98874.46
2018-02-25T05:44:12.625Z,98873.57
2018-02-25T05:44:44.246Z,98874.83
2018-02-25T05:45:15.874Z,98876.53
2018-02-25T05:45:47.548Z,98883.30
2018-02-25T05:46:19.173Z,98881.17
2018-02-25T05:46:50.794Z,98884.55
2018-02-25T05:47:22.430Z,98886.23
2018-02-25T05:47:54.067Z,98879.45
2018-02-25T05:48:25.690Z,98884.95
2018-02-25T05:48:57.357Z,98886.20
2018-02-25T05:49:28.980Z,98889.19
2018-02-25T05:50:00.602Z,98886.61
2018-02-25T05:50:32.230Z,98884.47
2018-02-25T05:51:03.853Z,98887.84
2018-02-25T05:51:35.477Z,98885.27
2018-02-25T05:52:07.107Z,98885.61
2018-02-25T05:52:38.734Z,98894.09
2018-02-25T05:53:10.559Z,98888.13
2018-02-25T05:53:42.190Z,98890.66
2018-02-25T05:54:13.813Z,98883.83
2018-02-25T05:54:45.466Z,98886.36
2018-02-25T05:55:17.102Z,98888.91
2018-02-25T05:55:48.746Z,98884.63
2018-02-25T05:56:20.374Z,98886.73
2018-02-25T05:56:51.997Z,98883.77
2018-02-25T05:57:23.626Z,98887.95
2018-02-25T05:57:55.257Z,98883.23
2018-02-25T05:58:26.930Z,98886.23
2018-02-25T05:58:58.554Z,98885.38
2018-02-25T05:59:30.177Z,98886.61
2018-02-25T06:00:01.811Z,98885.34
2018-02-25T06:00:33.437Z,98887.02
2018-02-25T06:01:05.061Z,98886.59
2018-02-25T06:01:36.682Z,98888.28
2018-02-25T06:02:08.306Z,98888.69
2018-02-25T06:02:39.978Z,98892.09
2018-02-25T06:03:11.606Z,98887.44
2018-02-25T06:03:43.230Z,98892.58
2018-02-25T06:04:14.854Z,98893.85
2018-02-25T06:04:46.477Z,98888.33
2018-02-25T06:05:18.107Z,98894.70
2018-02-25T06:05:49.785Z,98887.91
2018-02-25T06:06:21.418Z,98889.19
2018-02-25T06:06:53.042Z,98898.16
2018-02-25T06:07:24.670Z,98899.38
2018-02-25T06:07:56.300Z,98897.70
2018-02-25T06:08:27.931Z,98899.45
2018-02-25T06:08:59.562Z,98894.77
2018-02-25T06:09:31.194Z,98898.16
2018-02-25T06:10:02.821Z,98894.78
2018-02-25T06:10:34.445Z,98896.45
2018-02-25T06:11:06.126Z,98896.52
2018-02-25T06:11:37.754Z,98896.08